createdAt,value
2019-05-22T00:00:01.608Z,12.69
2019-05-22T00:01:01.636Z,12.73
2019-05-22T00:02:01.669Z,12.72
2019-05-22T00:03:01.701Z,12.80
2019-05-22T00:04:01.737Z,12.75
2019-05-22T00:05:01.805Z,12.69
2019-05-22T00:06:01.806Z,12.78
2019-05-22T00:07:01.843Z,12.75
2019-05-22T00:08:01.873Z,12.84
2019-05-22T00:09:01.912Z,12.75
2019-05-22T00:10:01.946Z,12.78
2019-05-22T00:11:02.046Z,12.81
2019-05-22T00:12:02.012Z,12.81
2019-05-22T00:13:02.049Z,12.76
2019-05-22T00:14:02.080Z,12.69
2019-05-22T00:15:02.959Z,12.66
2019-05-22T00:16:02.153Z,12.72
2019-05-22T00:17:02.182Z,12.73
2019-05-22T00:18:02.212Z,12.73
2019-05-22T00:19:02.247Z,12.84
2019-05-22T00:20:02.281Z,12.76
2019-05-22T00:21:02.340Z,12.86
2019-05-22T00:22:02.354Z,12.87
2019-05-22T00:23:02.407Z,12.94
2019-05-22T00:24:02.422Z,12.94
2019-05-22T00:25:02.453Z,12.86
2019-05-22T00:26:02.513Z,12.78
2019-05-22T00:27:02.520Z,12.73
2019-05-22T00:28:02.555Z,12.69
2019-05-22T00:29:02.607Z,12.72
2019-05-22T00:30:02.622Z,12.76
2019-05-22T00:31:02.659Z,12.70
2019-05-22T00:32:02.690Z,12.65
2019-05-22T00:33:02.725Z,12.65
2019-05-22T00:34:02.761Z,12.61
2019-05-22T00:35:02.793Z,12.63
2019-05-22T00:36:02.827Z,12.58
2019-05-22T00:37:02.862Z,12.54
2019-05-22T00:38:02.969Z,12.69
2019-05-22T00:39:02.931Z,12.63
2019-05-22T00:40:02.969Z,12.48
2019-05-22T00:41:03.001Z,12.53
2019-05-22T00:42:03.035Z,12.48
2019-05-22T00:43:09.181Z,12.55
2019-05-22T00:44:03.160Z,12.53
2019-05-22T00:45:03.137Z,12.48
2019-05-22T00:46:03.173Z,12.43
2019-05-22T00:47:03.201Z,12.43
2019-05-22T00:48:03.243Z,12.40
2019-05-22T00:49:03.265Z,12.43
2019-05-22T00:50:03.304Z,12.35
2019-05-22T00:51:03.340Z,12.30
2019-05-22T00:52:03.371Z,12.30
2019-05-22T00:53:03.403Z,12.32
2019-05-22T00:54:03.440Z,12.18
2019-05-22T00:55:03.471Z,12.29
2019-05-22T00:56:03.512Z,12.25
2019-05-22T00:57:03.544Z,12.25
2019-05-22T00:58:03.576Z,12.20
2019-05-22T00:59:03.609Z,12.28
2019-05-22T01:00:03.643Z,12.25
2019-05-22T01:01:03.681Z,12.28
2019-05-22T01:02:03.712Z,12.23
2019-05-22T01:03:03.742Z,12.29
2019-05-22T01:04:03.777Z,12.21
2019-05-22T01:05:03.809Z,12.20
2019-05-22T01:06:03.856Z,12.25
2019-05-22T01:07:03.877Z,12.28
2019-05-22T01:08:03.921Z,12.17
2019-05-22T01:09:03.947Z,12.23
2019-05-22T01:10:04.744Z,12.26
2019-05-22T01:11:04.013Z,12.28
2019-05-22T01:12:04.092Z,12.33
2019-05-22T01:13:04.079Z,12.28
2019-05-22T01:14:04.114Z,12.23
2019-05-22T01:15:04.458Z,12.25
2019-05-22T01:16:04.182Z,12.36
2019-05-22T01:17:04.228Z,12.28
2019-05-22T01:18:04.247Z,12.37
2019-05-22T01:19:04.281Z,12.30
2019-05-22T01:20:04.316Z,12.36
2019-05-22T01:21:04.348Z,12.43
2019-05-22T01:22:04.384Z,12.37
2019-05-22T01:23:04.415Z,12.37
2019-05-22T01:24:04.451Z,12.39
2019-05-22T01:25:04.483Z,12.32
2019-05-22T01:26:04.531Z,12.39
2019-05-22T01:27:04.570Z,12.36
2019-05-22T01:28:04.588Z,12.43
2019-05-22T01:29:04.625Z,12.29
2019-05-22T01:30:04.653Z,12.28
2019-05-22T01:31:04.686Z,12.23
2019-05-22T01:32:04.721Z,12.29
2019-05-22T01:33:04.752Z,12.28
2019-05-22T01:34:04.786Z,12.35
2019-05-22T01:35:04.819Z,12.43
2019-05-22T01:36:04.854Z,12.33
2019-05-22T01:37:04.887Z,12.37
2019-05-22T01:38:04.923Z,12.36
2019-05-22T01:39:04.957Z,12.37
2019-05-22T01:40:04.990Z,12.37
2019-05-22T01:41:05.021Z,12.39
2019-05-22T01:42:05.053Z,12.30
2019-05-22T01:43:05.092Z,12.33
2019-05-22T01:44:05.124Z,12.26
2019-05-22T01:45:06.705Z,12.20
2019-05-22T01:46:05.188Z,12.21
2019-05-22T01:47:05.222Z,12.14
2019-05-22T01:48:05.257Z,12.08
2019-05-22T01:49:05.290Z,12.11
2019-05-22T01:50:05.331Z,12.05
2019-05-22T01:51:05.361Z,12.03
2019-05-22T01:52:05.391Z,12.07
2019-05-22T01:53:05.423Z,11.93
2019-05-22T01:54:05.459Z,11.97
2019-05-22T01:55:05.495Z,11.83
2019-05-22T01:56:05.531Z,11.91
2019-05-22T01:57:05.561Z,11.97
2019-05-22T01:58:05.592Z,11.86
2019-05-22T01:59:05.626Z,11.97
2019-05-22T02:00:05.665Z,11.97
2019-05-22T02:01:05.694Z,11.93
2019-05-22T02:02:05.732Z,11.95
2019-05-22T02:03:05.769Z,11.89
2019-05-22T02:04:05.797Z,11.91
2019-05-22T02:05:05.827Z,11.97
2019-05-22T02:06:05.864Z,11.96
2019-05-22T02:07:05.893Z,11.80
2019-05-22T02:08:05.927Z,11.95
2019-05-22T02:09:05.966Z,12.10
2019-05-22T02:10:05.998Z,12.02
2019-05-22T02:11:06.030Z,12.02
2019-05-22T02:12:06.063Z,11.89
2019-05-22T02:13:06.095Z,11.86
2019-05-22T02:14:06.131Z,11.86
2019-05-22T02:15:06.162Z,11.83
2019-05-22T02:16:06.198Z,11.91
2019-05-22T02:17:06.230Z,11.89
2019-05-22T02:18:06.267Z,11.76
2019-05-22T02:19:06.321Z,11.96
2019-05-22T02:20:06.836Z,11.99
2019-05-22T02:21:06.366Z,12.08
2019-05-22T02:22:06.397Z,12.00
2019-05-22T02:23:06.433Z,12.02
2019-05-22T02:24:06.476Z,12.10
2019-05-22T02:25:06.500Z,12.10
2019-05-22T02:26:06.537Z,12.00
2019-05-22T02:27:06.568Z,11.97
2019-05-22T02:28:06.601Z,12.07
2019-05-22T02:29:06.637Z,12.00
2019-05-22T02:30:06.669Z,12.07
2019-05-22T02:31:06.701Z,12.08
2019-05-22T02:32:06.738Z,12.11
2019-05-22T02:33:06.806Z,12.17
2019-05-22T02:34:06.818Z,12.17
2019-05-22T02:35:06.840Z,12.21
2019-05-22T02:36:06.871Z,12.29
2019-05-22T02:37:06.903Z,12.32
2019-05-22T02:38:06.939Z,12.35
2019-05-22T02:39:06.979Z,12.36
2019-05-22T02:40:07.008Z,12.45
2019-05-22T02:41:07.039Z,12.48
2019-05-22T02:42:07.072Z,12.48
2019-05-22T02:43:07.111Z,12.51
2019-05-22T02:44:07.146Z,12.47
2019-05-22T02:45:07.177Z,12.53
2019-05-22T02:46:07.208Z,12.48
2019-05-22T02:47:18.982Z,12.63
2019-05-22T02:48:07.277Z,12.68
2019-05-22T02:49:07.314Z,12.73
2019-05-22T02:50:07.346Z,12.81
2019-05-22T02:51:07.379Z,12.81
2019-05-22T02:52:07.416Z,12.81
2019-05-22T02:53:07.447Z,12.87
2019-05-22T02:54:07.481Z,12.90
2019-05-22T02:55:07.516Z,12.95
2019-05-22T02:56:07.556Z,13.05
2019-05-22T02:57:07.585Z,13.03
2019-05-22T02:58:07.618Z,13.12
2019-05-22T02:59:07.650Z,13.11
2019-05-22T03:00:07.685Z,13.12
2019-05-22T03:01:07.719Z,13.19
2019-05-22T03:02:07.764Z,13.19
2019-05-22T03:03:07.788Z,13.19
2019-05-22T03:04:07.824Z,13.21
2019-05-22T03:05:07.855Z,13.23
2019-05-22T03:06:07.892Z,13.23
2019-05-22T03:07:07.927Z,13.26
2019-05-22T03:08:07.961Z,13.37
2019-05-22T03:09:08.115Z,13.39
2019-05-22T03:10:08.079Z,13.50
2019-05-22T03:11:08.068Z,13.58
2019-05-22T03:12:08.101Z,13.60
2019-05-22T03:13:08.154Z,13.61
2019-05-22T03:14:08.174Z,13.67
2019-05-22T03:15:08.202Z,13.79
2019-05-22T03:16:08.240Z,13.73
2019-05-22T03:17:08.277Z,13.93
2019-05-22T03:18:08.316Z,13.94
2019-05-22T03:19:09.401Z,14.00
2019-05-22T03:20:08.378Z,14.01
2019-05-22T03:21:08.412Z,14.12
2019-05-22T03:22:08.496Z,14.20
2019-05-22T03:23:08.479Z,14.22
2019-05-22T03:24:08.518Z,14.18
2019-05-22T03:25:08.561Z,14.25
2019-05-22T03:26:08.590Z,14.30
2019-05-22T03:27:08.621Z,14.36
2019-05-22T03:28:08.656Z,14.48
2019-05-22T03:29:08.690Z,14.55
2019-05-22T03:30:08.726Z,14.56
2019-05-22T03:31:08.762Z,14.67
2019-05-22T03:32:08.801Z,14.61
2019-05-22T03:33:08.830Z,14.56
2019-05-22T03:34:08.868Z,14.68
2019-05-22T03:35:08.923Z,14.74
2019-05-22T03:36:08.940Z,14.87
2019-05-22T03:37:08.970Z,14.92
2019-05-22T03:38:09.010Z,15.00
2019-05-22T03:39:09.047Z,15.10
2019-05-22T03:40:09.082Z,15.19
2019-05-22T03:41:09.112Z,15.17
2019-05-22T03:42:09.149Z,15.27
2019-05-22T03:43:09.185Z,15.35
2019-05-22T03:44:09.221Z,15.37
2019-05-22T03:45:09.259Z,15.55
2019-05-22T03:46:09.294Z,15.54
2019-05-22T03:47:09.328Z,15.66
2019-05-22T03:48:09.366Z,15.72
2019-05-22T03:49:26.094Z,15.81
2019-05-22T03:50:09.461Z,16.02
2019-05-22T03:51:09.497Z,16.00
2019-05-22T03:52:09.507Z,16.17
2019-05-22T03:53:09.543Z,16.25
2019-05-22T03:54:09.578Z,16.25
2019-05-22T03:55:09.618Z,16.39
2019-05-22T03:56:09.658Z,16.43
2019-05-22T03:57:09.694Z,16.50
2019-05-22T03:58:09.723Z,16.69
2019-05-22T03:59:09.761Z,16.77
2019-05-22T04:00:09.796Z,16.89
2019-05-22T04:01:09.868Z,16.91
2019-05-22T04:02:09.869Z,17.02
2019-05-22T04:03:09.915Z,17.17
2019-05-22T04:04:09.973Z,17.16
2019-05-22T04:05:09.982Z,17.30
2019-05-22T04:06:10.050Z,17.42
2019-05-22T04:07:10.052Z,17.37
2019-05-22T04:08:10.090Z,17.37
2019-05-22T04:09:10.127Z,17.60
2019-05-22T04:10:10.166Z,17.60
2019-05-22T04:11:10.200Z,17.65
2019-05-22T04:12:10.243Z,17.86
2019-05-22T04:13:10.282Z,17.91
2019-05-22T04:14:10.314Z,17.91
2019-05-22T04:15:10.349Z,17.88
2019-05-22T04:16:10.389Z,17.97
2019-05-22T04:17:10.443Z,18.11
2019-05-22T04:18:10.462Z,18.08
2019-05-22T04:19:10.508Z,18.15
2019-05-22T04:20:10.544Z,18.18
2019-05-22T04:21:10.582Z,18.23
2019-05-22T04:22:10.615Z,18.13
2019-05-22T04:23:10.653Z,18.05
2019-05-22T04:24:10.684Z,18.00
2019-05-22T04:25:10.723Z,18.15
2019-05-22T04:26:10.761Z,18.16
2019-05-22T04:27:10.803Z,18.13
2019-05-22T04:28:10.839Z,18.06
2019-05-22T04:29:10.877Z,18.16
2019-05-22T04:30:10.918Z,18.21
2019-05-22T04:31:10.963Z,18.24
2019-05-22T04:32:10.993Z,18.45
2019-05-22T04:33:11.027Z,18.81
2019-05-22T04:34:11.066Z,18.94
2019-05-22T04:35:11.114Z,19.45
2019-05-22T04:36:11.147Z,19.93
2019-05-22T04:37:11.182Z,20.53
2019-05-22T04:38:11.225Z,21.15
2019-05-22T04:39:11.260Z,21.48
2019-05-22T04:40:11.300Z,22.03
2019-05-22T04:41:11.338Z,22.36
2019-05-22T04:42:11.380Z,22.67
2019-05-22T04:43:11.417Z,22.88
2019-05-22T04:44:11.457Z,23.04
2019-05-22T04:45:11.498Z,23.32
2019-05-22T04:46:11.544Z,23.45
2019-05-22T04:47:11.579Z,23.55
2019-05-22T04:48:11.619Z,23.40
2019-05-22T04:49:11.661Z,23.28
2019-05-22T04:50:11.705Z,23.63
2019-05-22T04:51:11.746Z,23.86
2019-05-22T04:52:11.784Z,24.14
2019-05-22T04:53:11.823Z,24.48
2019-05-22T04:54:11.867Z,24.50
2019-05-22T04:55:11.920Z,24.69
2019-05-22T04:56:11.955Z,24.99
2019-05-22T04:57:11.992Z,25.16
2019-05-22T04:58:12.034Z,25.34
2019-05-22T04:59:12.085Z,25.61
2019-05-22T05:00:12.123Z,25.91
2019-05-22T05:01:12.172Z,25.95
2019-05-22T05:02:12.209Z,26.23
2019-05-22T05:03:12.253Z,26.24
2019-05-22T05:04:12.298Z,26.36
2019-05-22T05:05:12.342Z,26.55
2019-05-22T05:06:12.389Z,26.71
2019-05-22T05:07:12.426Z,27.00
2019-05-22T05:08:12.469Z,27.10
2019-05-22T05:09:12.515Z,27.22
2019-05-22T05:10:12.559Z,27.26
2019-05-22T05:11:12.604Z,27.30
2019-05-22T05:12:12.654Z,27.20
2019-05-22T05:13:12.695Z,27.35
2019-05-22T05:14:12.742Z,27.22
2019-05-22T05:15:12.783Z,26.88
2019-05-22T05:16:12.831Z,27.07
2019-05-22T05:17:12.872Z,27.10
2019-05-22T05:18:12.923Z,27.38
2019-05-22T05:19:12.975Z,27.52
2019-05-22T05:20:22.145Z,27.79
2019-05-22T05:21:13.054Z,27.94
2019-05-22T05:22:13.103Z,28.10
2019-05-22T05:23:13.151Z,28.15
2019-05-22T05:24:13.200Z,28.33
2019-05-22T05:25:13.247Z,28.03
2019-05-22T05:26:13.290Z,27.88
2019-05-22T05:27:13.334Z,28.40
2019-05-22T05:28:13.381Z,28.71
2019-05-22T05:29:13.427Z,28.71
2019-05-22T05:30:13.474Z,28.92
2019-05-22T05:31:13.522Z,28.89
2019-05-22T05:32:13.568Z,29.16
2019-05-22T05:33:13.619Z,29.20
2019-05-22T05:34:13.662Z,29.07
2019-05-22T05:35:13.709Z,29.22
2019-05-22T05:36:13.760Z,28.70
2019-05-22T05:37:13.856Z,28.06
2019-05-22T05:38:13.856Z,27.88
2019-05-22T05:39:13.902Z,28.09
2019-05-22T05:40:13.950Z,27.66
2019-05-22T05:41:13.994Z,28.13
2019-05-22T05:42:14.046Z,28.57
2019-05-22T05:43:14.090Z,29.02
2019-05-22T05:44:14.140Z,29.20
2019-05-22T05:45:14.193Z,29.69
2019-05-22T05:46:14.241Z,30.18
2019-05-22T05:47:14.287Z,30.46
2019-05-22T05:48:14.331Z,30.81
2019-05-22T05:49:14.379Z,30.85
2019-05-22T05:50:14.429Z,30.93
2019-05-22T05:51:14.480Z,30.92
2019-05-22T05:52:14.529Z,30.80
2019-05-22T05:53:14.602Z,30.73
2019-05-22T05:54:14.628Z,29.81
2019-05-22T05:55:14.674Z,29.00
2019-05-22T05:56:14.724Z,28.52
2019-05-22T05:57:14.771Z,28.41
2019-05-22T05:58:14.821Z,28.33
2019-05-22T05:59:14.881Z,28.33
2019-05-22T06:00:14.920Z,28.25
2019-05-22T06:01:15.031Z,28.06
2019-05-22T06:02:15.019Z,27.72
2019-05-22T06:03:15.072Z,27.50
2019-05-22T06:04:15.119Z,27.55
2019-05-22T06:05:15.164Z,27.53
2019-05-22T06:06:15.213Z,27.40
2019-05-22T06:07:15.264Z,26.88
2019-05-22T06:08:15.317Z,26.06
2019-05-22T06:09:15.360Z,25.99
2019-05-22T06:10:15.417Z,25.77
2019-05-22T06:11:15.460Z,25.83
2019-05-22T06:12:15.525Z,25.58
2019-05-22T06:13:15.554Z,25.40
2019-05-22T06:14:15.600Z,25.62
2019-05-22T06:15:15.651Z,25.81
2019-05-22T06:16:15.697Z,25.66
2019-05-22T06:17:15.772Z,25.52
2019-05-22T06:18:15.799Z,25.03
2019-05-22T06:19:15.841Z,24.40
2019-05-22T06:20:15.887Z,24.00
2019-05-22T06:21:15.938Z,23.62
2019-05-22T06:22:15.980Z,22.47
2019-05-22T06:23:16.028Z,21.68
2019-05-22T06:24:16.076Z,21.45
2019-05-22T06:25:16.123Z,21.78
2019-05-22T06:26:16.173Z,22.01
2019-05-22T06:27:16.219Z,22.98
2019-05-22T06:28:16.263Z,23.91
2019-05-22T06:29:16.312Z,23.62
2019-05-22T06:30:16.354Z,24.06
2019-05-22T06:31:16.402Z,24.51
2019-05-22T06:32:16.454Z,24.59
2019-05-22T06:33:16.497Z,24.93
2019-05-22T06:34:16.542Z,24.71
2019-05-22T06:35:16.597Z,25.04
2019-05-22T06:36:16.649Z,24.89
2019-05-22T06:37:16.682Z,24.51
2019-05-22T06:38:16.730Z,25.12
2019-05-22T06:39:16.779Z,24.34
2019-05-22T06:40:16.823Z,24.14
2019-05-22T06:41:16.870Z,25.15
2019-05-22T06:42:16.951Z,24.99
2019-05-22T06:43:16.966Z,25.36
2019-05-22T06:44:17.118Z,25.91
2019-05-22T06:45:17.065Z,26.74
2019-05-22T06:46:17.111Z,26.39
2019-05-22T06:47:17.161Z,26.41
2019-05-22T06:48:17.206Z,26.06
2019-05-22T06:49:17.263Z,26.22
2019-05-22T06:50:17.307Z,25.73
2019-05-22T06:51:19.693Z,25.26
2019-05-22T06:52:17.400Z,24.61
2019-05-22T06:53:17.452Z,24.63
2019-05-22T06:54:17.504Z,24.61
2019-05-22T06:55:17.550Z,24.36
2019-05-22T06:56:17.600Z,24.51
2019-05-22T06:57:17.648Z,25.61
2019-05-22T06:58:17.697Z,26.19
2019-05-22T06:59:17.748Z,26.52
2019-05-22T07:00:17.794Z,27.05
2019-05-22T07:01:17.842Z,27.61
2019-05-22T07:02:17.891Z,28.33
2019-05-22T07:03:17.940Z,28.27
2019-05-22T07:04:17.989Z,28.15
2019-05-22T07:05:18.046Z,28.28
2019-05-22T07:06:18.098Z,28.03
2019-05-22T07:07:18.140Z,27.30
2019-05-22T07:08:18.246Z,26.81
2019-05-22T07:09:18.238Z,26.18
2019-05-22T07:10:18.289Z,26.51
2019-05-22T07:11:18.338Z,27.01
2019-05-22T07:12:18.416Z,26.27
2019-05-22T07:13:18.435Z,26.33
2019-05-22T07:14:18.492Z,25.92
2019-05-22T07:15:18.538Z,24.66
2019-05-22T07:16:18.585Z,25.61
2019-05-22T07:17:18.637Z,25.61
2019-05-22T07:18:18.687Z,26.06
2019-05-22T07:19:18.741Z,26.15
2019-05-22T07:20:18.793Z,25.34
2019-05-22T07:21:31.967Z,24.58
2019-05-22T07:22:18.917Z,24.69
2019-05-22T07:23:18.953Z,24.24
2019-05-22T07:24:18.984Z,24.47
2019-05-22T07:25:19.037Z,24.01
2019-05-22T07:26:19.083Z,24.19
2019-05-22T07:27:19.131Z,24.40
2019-05-22T07:28:19.182Z,24.46
2019-05-22T07:29:19.243Z,25.16
2019-05-22T07:30:19.283Z,24.97
2019-05-22T07:31:19.332Z,24.92
2019-05-22T07:32:19.387Z,24.14
2019-05-22T07:33:19.430Z,23.94
2019-05-22T07:34:19.480Z,24.34
2019-05-22T07:35:19.528Z,23.56
2019-05-22T07:36:19.578Z,24.00
2019-05-22T07:37:19.625Z,24.37
2019-05-22T07:38:19.675Z,24.04
2019-05-22T07:39:19.729Z,24.03
2019-05-22T07:40:19.790Z,23.81
2019-05-22T07:41:19.824Z,23.94
2019-05-22T07:42:19.875Z,24.25
2019-05-22T07:43:19.922Z,23.73
2019-05-22T07:44:19.976Z,24.46
2019-05-22T07:45:20.030Z,25.36
2019-05-22T07:46:20.069Z,26.16
2019-05-22T07:47:20.123Z,25.93
2019-05-22T07:48:20.208Z,26.36
2019-05-22T07:49:20.219Z,26.41
2019-05-22T07:50:20.268Z,25.34
2019-05-22T07:51:20.314Z,25.62
2019-05-22T07:52:20.364Z,25.63
2019-05-22T07:53:20.413Z,26.71
2019-05-22T07:54:20.465Z,27.04
2019-05-22T07:55:20.628Z,27.23
2019-05-22T07:56:20.567Z,27.81
2019-05-22T07:57:20.613Z,26.98
2019-05-22T07:58:20.669Z,26.73
2019-05-22T07:59:20.717Z,26.59
2019-05-22T08:00:20.782Z,27.55
2019-05-22T08:01:20.815Z,28.60
2019-05-22T08:02:20.866Z,29.12
2019-05-22T08:03:20.923Z,29.40
2019-05-22T08:04:20.985Z,29.89
2019-05-22T08:05:21.023Z,30.48
2019-05-22T08:06:21.072Z,29.59
2019-05-22T08:07:21.120Z,29.87
2019-05-22T08:08:21.174Z,29.98
2019-05-22T08:09:21.234Z,28.75
2019-05-22T08:10:21.278Z,28.53
2019-05-22T08:11:21.340Z,29.44
2019-05-22T08:12:21.386Z,29.05
2019-05-22T08:13:21.435Z,29.46
2019-05-22T08:14:21.555Z,29.71
2019-05-22T08:15:21.541Z,27.93
2019-05-22T08:16:21.597Z,27.73
2019-05-22T08:17:21.648Z,28.22
2019-05-22T08:18:21.698Z,28.82
2019-05-22T08:19:21.754Z,29.18
2019-05-22T08:20:21.805Z,29.03
2019-05-22T08:21:23.544Z,29.37
2019-05-22T08:22:21.937Z,30.21
2019-05-22T08:23:21.966Z,30.44
2019-05-22T08:24:22.021Z,30.55
2019-05-22T08:25:22.074Z,30.95
2019-05-22T08:26:22.141Z,30.74
2019-05-22T08:27:22.180Z,30.81
2019-05-22T08:28:22.238Z,31.10
2019-05-22T08:29:22.286Z,31.44
2019-05-22T08:30:22.344Z,31.37
2019-05-22T08:31:22.401Z,31.48
2019-05-22T08:32:22.459Z,31.00
2019-05-22T08:33:22.512Z,29.59
2019-05-22T08:34:22.562Z,29.58
2019-05-22T08:35:22.615Z,29.34
2019-05-22T08:36:22.672Z,29.99
2019-05-22T08:37:22.727Z,30.14
2019-05-22T08:38:22.789Z,30.52
2019-05-22T08:39:22.833Z,30.27
2019-05-22T08:40:22.887Z,30.58
2019-05-22T08:41:22.944Z,29.90
2019-05-22T08:42:22.998Z,29.43
2019-05-22T08:43:23.056Z,29.07
2019-05-22T08:44:23.109Z,28.71
2019-05-22T08:45:23.166Z,28.50
2019-05-22T08:46:23.217Z,29.40
2019-05-22T08:47:23.275Z,28.86
2019-05-22T08:48:23.329Z,29.57
2019-05-22T08:49:23.382Z,30.35
2019-05-22T08:50:23.437Z,30.13
2019-05-22T08:51:23.510Z,30.21
2019-05-22T08:52:24.515Z,30.02
2019-05-22T08:53:23.602Z,30.26
2019-05-22T08:54:23.659Z,30.86
2019-05-22T08:55:23.714Z,30.80
2019-05-22T08:56:23.768Z,30.11
2019-05-22T08:57:23.825Z,30.24
2019-05-22T08:58:23.876Z,30.83
2019-05-22T08:59:23.936Z,31.45
2019-05-22T09:00:23.989Z,31.29
2019-05-22T09:04:08.583Z,31.44
2019-05-22T09:04:09.748Z,31.60
2019-05-22T09:05:09.808Z,30.43
2019-05-22T09:06:09.866Z,31.28
2019-05-22T09:07:09.927Z,31.02
2019-05-22T09:08:09.984Z,31.15
2019-05-22T09:09:10.040Z,31.25
2019-05-22T09:10:10.083Z,31.30
2019-05-22T09:11:10.163Z,31.14
2019-05-22T09:12:10.200Z,30.36
2019-05-22T09:13:10.260Z,31.02
2019-05-22T09:14:10.330Z,31.33
2019-05-22T09:15:10.366Z,31.44
2019-05-22T09:16:10.424Z,31.92
2019-05-22T09:17:10.491Z,32.45
2019-05-22T09:18:10.530Z,32.26
2019-05-22T09:19:10.656Z,32.60
2019-05-22T09:20:10.930Z,32.26
2019-05-22T09:21:10.695Z,32.41
2019-05-22T09:22:10.810Z,32.64
2019-05-22T09:23:10.819Z,31.93
2019-05-22T09:24:10.878Z,32.11
2019-05-22T09:25:10.944Z,31.67
2019-05-22T09:26:10.989Z,31.95
2019-05-22T09:27:11.036Z,31.86
2019-05-22T09:28:11.110Z,31.45
2019-05-22T09:29:11.164Z,30.91
2019-05-22T09:30:11.212Z,30.29
2019-05-22T09:31:11.260Z,30.40
2019-05-22T09:32:11.323Z,30.56
2019-05-22T09:33:11.374Z,30.24
2019-05-22T09:34:11.446Z,31.00
2019-05-22T09:35:11.486Z,31.33
2019-05-22T09:36:11.555Z,31.98
2019-05-22T09:37:11.599Z,32.19
2019-05-22T09:38:11.656Z,32.54
2019-05-22T09:39:11.715Z,32.82
2019-05-22T09:40:11.770Z,32.95
2019-05-22T09:41:11.826Z,33.12
2019-05-22T09:42:11.883Z,33.23
2019-05-22T09:43:11.939Z,33.23
2019-05-22T09:44:15.180Z,33.39
2019-05-22T09:45:12.055Z,33.48
2019-05-22T09:46:12.117Z,32.38
2019-05-22T09:47:12.165Z,30.93
2019-05-22T09:48:12.221Z,30.96
2019-05-22T09:49:12.284Z,31.42
2019-05-22T09:50:12.332Z,32.11
2019-05-22T09:51:12.389Z,32.09
2019-05-22T09:52:12.445Z,30.29
2019-05-22T09:53:12.500Z,28.45
2019-05-22T09:54:12.558Z,27.64
2019-05-22T09:55:12.616Z,27.91
2019-05-22T09:56:12.683Z,28.04
2019-05-22T09:57:12.723Z,28.15
2019-05-22T09:58:12.779Z,29.13
2019-05-22T09:59:12.843Z,29.39
2019-05-22T10:00:12.892Z,29.80
2019-05-22T10:01:12.945Z,30.49
2019-05-22T10:02:13.001Z,30.76
2019-05-22T10:03:13.063Z,29.76
2019-05-22T10:04:13.117Z,30.40
2019-05-22T10:05:13.166Z,30.48
2019-05-22T10:06:13.234Z,29.49
2019-05-22T10:07:13.276Z,29.89
2019-05-22T10:08:13.331Z,30.29
2019-05-22T10:09:13.388Z,30.40
2019-05-22T10:10:13.443Z,30.96
2019-05-22T10:11:13.515Z,31.36
2019-05-22T10:12:13.552Z,31.00
2019-05-22T10:13:13.643Z,30.65
2019-05-22T10:14:13.666Z,30.63
2019-05-22T10:15:13.958Z,30.49
2019-05-22T10:16:13.789Z,31.10
2019-05-22T10:17:13.827Z,31.11
2019-05-22T10:18:13.883Z,31.29
2019-05-22T10:19:13.940Z,31.85
2019-05-22T10:20:13.993Z,31.52
2019-05-22T10:21:14.078Z,31.72
2019-05-22T10:22:14.104Z,31.95
2019-05-22T10:23:16.184Z,32.72
2019-05-22T10:24:14.213Z,32.26
2019-05-22T10:25:16.636Z,32.22
2019-05-22T10:26:14.328Z,31.47
2019-05-22T10:27:14.389Z,30.35
2019-05-22T10:28:14.440Z,30.26
2019-05-22T10:29:14.496Z,30.48
2019-05-22T10:30:14.550Z,30.81
2019-05-22T10:31:16.891Z,31.23
2019-05-22T10:32:14.661Z,31.42
2019-05-22T10:33:14.740Z,30.10
2019-05-22T10:34:14.769Z,29.76
2019-05-22T10:35:14.840Z,29.15
2019-05-22T10:36:14.880Z,29.67
2019-05-22T10:37:14.933Z,29.57
2019-05-22T10:38:14.996Z,29.74
2019-05-22T10:39:15.044Z,29.47
2019-05-22T10:40:15.100Z,29.20
2019-05-22T10:41:15.155Z,29.76
2019-05-22T10:42:15.213Z,29.71
2019-05-22T10:43:15.347Z,28.70
2019-05-22T10:44:15.323Z,29.47
2019-05-22T10:45:15.375Z,30.03
2019-05-22T10:46:15.467Z,29.34
2019-05-22T10:47:18.580Z,28.78
2019-05-22T10:48:15.539Z,27.15
2019-05-22T10:49:15.593Z,27.50
2019-05-22T10:50:15.650Z,27.91
2019-05-22T10:51:15.706Z,28.52
2019-05-22T10:52:15.758Z,28.75
2019-05-22T10:53:31.891Z,28.75
2019-05-22T10:54:15.866Z,29.13
2019-05-22T10:55:15.924Z,29.42
2019-05-22T10:56:15.975Z,29.46
2019-05-22T10:57:16.027Z,29.20
2019-05-22T10:58:16.114Z,28.94
2019-05-22T10:59:16.136Z,29.40
2019-05-22T11:00:16.198Z,29.53
2019-05-22T11:01:16.245Z,29.74
2019-05-22T11:02:16.306Z,30.01
2019-05-22T11:03:16.356Z,29.62
2019-05-22T11:04:19.253Z,29.74
2019-05-22T11:05:16.503Z,29.73
2019-05-22T11:06:16.514Z,30.23
2019-05-22T11:07:16.569Z,30.26
2019-05-22T11:08:16.633Z,30.05
2019-05-22T11:09:16.683Z,30.20
2019-05-22T11:10:16.735Z,30.08
2019-05-22T11:11:16.789Z,30.39
2019-05-22T11:12:16.841Z,30.14
2019-05-22T11:13:16.896Z,30.23
2019-05-22T11:14:16.953Z,30.11
2019-05-22T11:15:17.003Z,30.24
2019-05-22T11:16:17.057Z,30.56
2019-05-22T11:17:17.116Z,30.51
2019-05-22T11:18:17.166Z,30.36
2019-05-22T11:19:17.222Z,30.05
2019-05-22T11:20:17.286Z,30.43
2019-05-22T11:21:17.328Z,30.56
2019-05-22T11:22:17.393Z,30.83
2019-05-22T11:23:17.437Z,31.11
2019-05-22T11:24:17.492Z,31.42
2019-05-22T11:25:17.549Z,31.72
2019-05-22T11:26:17.601Z,31.52
2019-05-22T11:27:17.657Z,31.10
2019-05-22T11:28:17.748Z,30.89
2019-05-22T11:29:17.766Z,30.74
2019-05-22T11:30:17.820Z,29.67
2019-05-22T11:31:17.879Z,29.64
2019-05-22T11:32:17.929Z,29.95
2019-05-22T11:33:17.986Z,29.05
2019-05-22T11:34:18.040Z,28.06
2019-05-22T11:35:18.146Z,28.12
2019-05-22T11:36:18.151Z,28.83
2019-05-22T11:37:18.201Z,28.57
2019-05-22T11:38:18.262Z,29.02
2019-05-22T11:39:18.381Z,29.13
2019-05-22T11:40:18.373Z,29.25
2019-05-22T11:41:18.428Z,29.68
2019-05-22T11:42:18.478Z,29.12
2019-05-22T11:43:18.531Z,28.06
2019-05-22T11:44:18.583Z,28.70
2019-05-22T11:45:18.639Z,29.24
2019-05-22T11:46:18.696Z,29.42
2019-05-22T11:47:18.747Z,28.53
2019-05-22T11:48:18.801Z,28.49
2019-05-22T11:49:18.861Z,29.44
2019-05-22T11:50:18.910Z,29.10
2019-05-22T11:51:18.964Z,29.67
2019-05-22T11:52:19.042Z,29.50
2019-05-22T11:53:19.078Z,29.94
2019-05-22T11:54:19.126Z,30.13
2019-05-22T11:55:19.188Z,29.68
2019-05-22T11:56:19.237Z,30.16
2019-05-22T11:57:19.288Z,30.62
2019-05-22T11:58:19.349Z,30.92
2019-05-22T11:59:19.401Z,31.04
2019-05-22T12:00:19.457Z,31.05
2019-05-22T12:01:19.507Z,31.18
2019-05-22T12:02:19.567Z,30.24
2019-05-22T12:03:19.616Z,30.46
2019-05-22T12:04:19.670Z,30.73
2019-05-22T12:05:19.727Z,30.86
2019-05-22T12:06:19.782Z,31.07
2019-05-22T12:07:19.836Z,31.04
2019-05-22T12:08:19.895Z,30.98
2019-05-22T12:09:19.969Z,30.71
2019-05-22T12:10:19.998Z,31.07
2019-05-22T12:11:20.057Z,31.10
2019-05-22T12:12:20.114Z,30.69
2019-05-22T12:13:20.167Z,30.83
2019-05-22T12:14:20.220Z,30.76
2019-05-22T12:15:20.275Z,30.83
2019-05-22T12:16:20.331Z,30.91
2019-05-22T12:17:36.591Z,31.02
2019-05-22T12:18:20.445Z,31.39
2019-05-22T12:19:20.501Z,31.44
2019-05-22T12:20:20.553Z,31.37
2019-05-22T12:21:20.605Z,31.48
2019-05-22T12:22:20.662Z,31.33
2019-05-22T12:23:20.727Z,31.35
2019-05-22T12:24:28.587Z,31.02
2019-05-22T12:25:20.829Z,31.00
2019-05-22T12:26:20.881Z,31.22
2019-05-22T12:27:20.937Z,31.59
2019-05-22T12:28:20.990Z,31.74
2019-05-22T12:29:21.047Z,31.44
2019-05-22T12:30:21.106Z,31.57
2019-05-22T12:31:21.162Z,31.45
2019-05-22T12:32:21.216Z,31.70
2019-05-22T12:33:21.267Z,30.48
2019-05-22T12:34:21.327Z,29.55
2019-05-22T12:35:21.384Z,30.06
2019-05-22T12:36:21.434Z,30.29
2019-05-22T12:37:21.491Z,30.88
2019-05-22T12:38:21.544Z,30.80
2019-05-22T12:39:21.601Z,31.05
2019-05-22T12:40:21.656Z,31.32
2019-05-22T12:41:21.709Z,31.47
2019-05-22T12:42:21.765Z,31.30
2019-05-22T12:43:21.821Z,31.45
2019-05-22T12:44:21.879Z,31.60
2019-05-22T12:45:21.930Z,31.52
2019-05-22T12:46:21.987Z,31.45
2019-05-22T12:47:22.040Z,31.36
2019-05-22T12:48:22.099Z,31.39
2019-05-22T12:49:22.153Z,31.37
2019-05-22T12:50:22.209Z,31.23
2019-05-22T12:51:22.262Z,30.62
2019-05-22T12:52:22.320Z,29.95
2019-05-22T12:53:22.380Z,29.80
2019-05-22T12:54:22.427Z,30.10